Time,TemperatureF,DewpointF,PressureIn,WindDirection,WindDirectionDegrees,WindSpeedMPH,WindSpeedGustMPH,Humidity,HourlyPrecipIn,Conditions,Clouds,dailyrainin,SoftwareType,DateUTC
2013-02-05 00:00:00,35.1,18.3,29.70,NW,315,0.0,0.5,50,0.00,CLR,,0.00,WeatherDisplay:10.37,2013-02-05 07:00:00,
2013-02-05 00:05:00,34.9,18.1,29.70,WNW,292,1.2,1.2,50,0.00,CLR,,0.00,WeatherDisplay:10.37,2013-02-05 07:05:00,
2013-02-05 00:10:00,35.1,18.7,29.70,NW,315,1.2,1.2,51,0.00,CLR,,0.00,WeatherDisplay:10.37,2013-02-05 07:10:00,
2013-02-05 00:15:00,35.2,18.4,29.71,NW,315,1.2,1.2,50,0.00,CLR,,0.00,WeatherDisplay:10.37,2013-02-05 07:15:00,
2013-02-05 00:20:00,35.2,18.0,29.70,NW,315,1.2,1.2,49,0.00,CLR,,0.00,WeatherDisplay:10.37,2013-02-05 07:20:00,
2013-02-05 00:25:00,35.6,17.8,29.70,NW,315,1.4,1.4,48,0.00,CLR,,0.00,WeatherDisplay:10.37,2013-02-05 07:25:00,
2013-02-05 00:30:00,36.0,17.7,29.71,NNE,22,1.2,1.6,47,0.00,CLR,,0.00,WeatherDisplay:10.37,2013-02-05 07:30:00,
2013-02-05 00:35:00,36.1,17.8,29.71,NNW,338,1.2,1.2,47,0.00,CLR,,0.00,WeatherDisplay:10.37,2013-02-05 07:35:00,
2013-02-05 00:40:00,36.0,17.7,29.71,NNW,338,0.0,0.0,47,0.00,CLR,,0.00,WeatherDisplay:10.37,2013-02-05 07:40:00,
2013-02-05 00:45:00,35.6,17.3,29.71,NW,315,1.2,1.2,47,0.00,CLR,,0.00,WeatherDisplay:10.37,2013-02-05 07:45:00,
2013-02-05 00:50:00,35.2,16.5,29.70,NNW,338,1.2,1.2,46,0.00,CLR,,0.00,WeatherDisplay:10.37,2013-02-05 07:50:00,
2013-02-05 00:55:00,35.1,16.8,29.70,NNW,338,1.4,1.4,47,0.00,CLR,,0.00,WeatherDisplay:10.37,2013-02-05 07:55:00,
2013-02-05 01:00:00,35.2,17.5,29.70,NNW,338,2.3,2.3,48,0.00,CLR,,0.00,WeatherDisplay:10.37,2013-02-05 08:00:00,
2013-02-05 01:05:00,35.8,18.5,29.70,NNE,22,2.4,2.4,49,0.00,CLR,,0.00,WeatherDisplay:10.37,2013-02-05 08:05:00,
2013-02-05 01:10:00,36.3,19.0,29.70,North,0,2.4,2.4,49,0.00,CLR,,0.00,WeatherDisplay:10.37,2013-02-05 08:10:00,
2013-02-05 01:15:00,36.7,19.3,29.70,North,0,2.3,2.3,49,0.00,CLR,,0.00,WeatherDisplay:10.37,2013-02-05 08:15:00,
2013-02-05 01:20:00,36.9,19.5,29.70,North,0,2.3,2.3,49,0.00,CLR,,0.00,WeatherDisplay:10.37,2013-02-05 08:20:00,
2013-02-05 01:25:00,36.7,19.3,29.70,NNW,338,1.2,1.2,49,0.00,CLR,,0.00,WeatherDisplay:10.37,2013-02-05 08:25:00,
2013-02-05 01:30:00,36.5,19.6,29.70,NNW,338,3.5,3.5,50,0.00,CLR,,0.00,WeatherDisplay:10.37,2013-02-05 08:30:00,
2013-02-05 01:35:00,36.9,19.9,29.71,WNW,292,2.3,2.3,50,0.00,CLR,,0.00,WeatherDisplay:10.37,2013-02-05 08:35:00,
2013-02-05 01:40:00,37.4,20.4,29.70,NW,315,2.3,2.3,50,0.00,CLR,,0.00,WeatherDisplay:10.37,2013-02-05 08:40:00,
2013-02-05 01:45:00,37.6,20.6,29.70,NNW,338,2.3,2.3,50,0.00,CLR,,0.00,WeatherDisplay:10.37,2013-02-05 08:45:00,
2013-02-05 01:50:00,37.2,19.8,29.70,North,0,0.7,0.7,49,0.00,CLR,,0.00,WeatherDisplay:10.37,2013-02-05 08:50:00,
2013-02-05 01:55:00,36.9,19.5,29.70,NNW,338,0.5,0.5,49,0.00,CLR,,0.00,WeatherDisplay:10.37,2013-02-05 08:55:00,
2013-02-05 02:00:00,36.3,19.0,29.70,NE,45,0.9,0.9,49,0.00,CLR,,0.00,WeatherDisplay:10.37,2013-02-05 09:00:00,
2013-02-05 02:05:00,36.1,18.8,29.70,NE,45,1.2,1.2,49,0.00,CLR,,0.00,WeatherDisplay:10.37,2013-02-05 09:05:00,
2013-02-05 02:10:00,35.6,18.8,29.70,NE,45,2.3,0.0,50,0.00,CLR,,0.00,WeatherDisplay:10.37,2013-02-05 09:10:00,
2013-02-05 02:15:00,35.4,18.6,29.70,East,90,0.0,0.0,50,0.00,CLR,,0.00,WeatherDisplay:10.37,2013-02-05 09:15:00,
2013-02-05 02:20:00,35.1,18.3,29.70,North,0,1.2,0.0,50,0.00,CLR,,0.00,WeatherDisplay:10.37,2013-02-05 09:20:00,
2013-02-05 02:25:00,34.7,18.4,29.70,NE,45,0.2,0.2,51,0.00,CLR,,0.00,WeatherDisplay:10.37,2013-02-05 09:25:00,
2013-02-05 02:30:00,34.5,18.2,29.70,NNE,22,0.0,0.0,51,0.00,CLR,,0.00,WeatherDisplay:10.37,2013-02-05 09:30:00,
2013-02-05 02:35:00,34.2,17.9,29.70,North,0,0.5,0.5,51,0.00,CLR,,0.00,WeatherDisplay:10.37,2013-02-05 09:35:00,
2013-02-05 02:40:00,34.2,18.3,29.70,North,0,1.2,1.2,52,0.00,CLR,,0.00,WeatherDisplay:10.37,2013-02-05 09:40:00,
2013-02-05 02:45:00,34.0,18.6,29.70,NNW,338,0.9,0.9,53,0.00,CLR,,0.00,WeatherDisplay:10.37,2013-02-05 09:45:00,
2013-02-05 02:50:00,34.0,18.6,29.69,NNW,338,0.0,0.0,53,0.00,CLR,,0.00,WeatherDisplay:10.37,2013-02-05 09:50:00,
2013-02-05 02:55:00,34.0,18.6,29.70,ENE,68,0.0,0.0,53,0.00,CLR,,0.00,WeatherDisplay:10.37,2013-02-05 09:55:00,
2013-02-05 03:00:00,33.8,18.5,29.69,North,0,0.0,0.0,53,0.00,CLR,,0.00,WeatherDisplay:10.37,2013-02-05 10:00:00,
2013-02-05 03:05:00,34.0,19.1,29.69,North,0,0.5,0.5,54,0.00,CLR,,0.00,WeatherDisplay:10.37,2013-02-05 10:05:00,
2013-02-05 03:10:00,33.8,18.9,29.69,North,0,0.0,0.0,54,0.00,CLR,,0.00,WeatherDisplay:10.37,2013-02-05 10:10:00,
2013-02-05 03:15:00,33.6,18.7,29.69,NNE,22,0.0,0.0,54,0.00,CLR,,0.00,WeatherDisplay:10.37,2013-02-05 10:15:00,
2013-02-05 03:20:00,33.4,18.6,29.70,North,0,0.0,0.0,54,0.00,CLR,,0.00,WeatherDisplay:10.37,2013-02-05 10:20:00,
2013-02-05 03:25:00,33.1,18.7,29.69,NNE,22,0.0,0.0,55,0.00,CLR,,0.00,WeatherDisplay:10.37,2013-02-05 10:25:00,
2013-02-05 03:30:00,32.7,18.3,29.69,NNE,22,0.0,0.0,55,0.00,CLR,,0.00,WeatherDisplay:10.37,2013-02-05 10:30:00,
2013-02-05 03:35:00,32.5,18.1,29.69,NNE,22,0.0,0.0,55,0.00,CLR,,0.00,WeatherDisplay:10.37,2013-02-05 10:35:00,
2013-02-05 03:40:00,32.2,18.2,29.70,ENE,68,0.0,0.0,56,0.00,CLR,,0.00,WeatherDisplay:10.37,2013-02-05 10:40:00,
2013-02-05 03:45:00,32.0,18.1,29.70,ENE,68,0.2,0.2,56,0.00,CLR,,0.00,WeatherDisplay:10.37,2013-02-05 10:45:00,
2013-02-05 03:50:00,31.8,17.5,29.70,ENE,68,0.0,0.0,55,0.00,CLR,,0.00,WeatherDisplay:10.37,2013-02-05 10:50:00,
2013-02-05 03:55:00,31.6,17.7,29.69,ENE,68,0.0,0.0,56,0.00,CLR,,0.00,WeatherDisplay:10.37,2013-02-05 10:55:00,
2013-02-05 04:00:00,31.3,17.4,29.70,NNE,22,0.0,0.0,56,0.00,CLR,,0.00,WeatherDisplay:10.37,2013-02-05 11:00:00,
2013-02-05 04:05:00,31.3,17.8,29.70,North,0,0.0,0.0,57,0.00,CLR,,0.00,WeatherDisplay:10.37,2013-02-05 11:05:00,
2013-02-05 04:10:00,31.1,18.0,29.70,NNW,338,1.2,1.2,58,0.00,CLR,,0.00,WeatherDisplay:10.37,2013-02-05 11:10:00,
2013-02-05 04:15:00,31.3,18.6,29.70,North,0,1.2,1.2,59,0.00,CLR,,0.00,WeatherDisplay:10.37,2013-02-05 11:15:00,
2013-02-05 04:20:00,31.3,18.6,29.70,North,0,0.0,0.0,59,0.00,CLR,,0.00,WeatherDisplay:10.37,2013-02-05 11:20:00,
2013-02-05 04:25:00,31.5,18.8,29.70,NNE,22,0.0,0.2,59,0.00,CLR,,0.00,WeatherDisplay:10.37,2013-02-05 11:25:00,
2013-02-05 04:30:00,31.5,19.2,29.70,North,0,0.9,0.9,60,0.00,CLR,,0.00,WeatherDisplay:10.37,2013-02-05 11:30:00,
2013-02-05 04:35:00,31.5,18.8,29.70,NNE,22,1.2,1.2,59,0.00,CLR,,0.00,WeatherDisplay:10.37,2013-02-05 11:35:00,
2013-02-05 04:40:00,32.0,20.1,29.70,NW,315,2.3,2.3,61,0.00,CLR,,0.00,WeatherDisplay:10.37,2013-02-05 11:40:00,
2013-02-05 04:45:00,32.9,20.5,29.70,NNW,338,2.3,2.3,60,0.00,CLR,,0.00,WeatherDisplay:10.37,2013-02-05 11:45:00,
2013-02-05 04:50:00,33.8,21.0,29.70,NNW,338,2.3,2.3,59,0.00,CLR,,0.00,WeatherDisplay:10.37,2013-02-05 11:50:00,
2013-02-05 04:55:00,34.2,20.9,29.70,NNW,338,3.5,3.5,58,0.00,CLR,,0.00,WeatherDisplay:10.37,2013-02-05 11:55:00,
2013-02-05 05:00:00,34.2,20.9,29.70,NNE,22,2.3,2.3,58,0.00,CLR,,0.00,WeatherDisplay:10.37,2013-02-05 12:00:00,
2013-02-05 05:05:00,34.3,20.7,29.70,North,0,1.2,1.2,57,0.00,CLR,,0.00,WeatherDisplay:10.37,2013-02-05 12:05:00,
2013-02-05 05:10:00,34.3,20.7,29.70,NW,315,1.2,2.0,57,0.00,CLR,,0.00,WeatherDisplay:10.37,2013-02-05 12:10:00,
2013-02-05 05:15:00,34.5,20.8,29.70,NNW,338,2.3,2.3,57,0.00,CLR,,0.00,WeatherDisplay:10.37,2013-02-05 12:15:00,
2013-02-05 05:20:00,34.7,21.0,29.70,NNW,338,2.3,2.3,57,0.00,CLR,,0.00,WeatherDisplay:10.37,2013-02-05 12:20:00,
2013-02-05 05:25:00,34.9,21.2,29.70,North,0,1.6,1.6,57,0.00,CLR,,0.00,WeatherDisplay:10.37,2013-02-05 12:25:00,
2013-02-05 05:30:00,34.9,20.8,29.70,North,0,2.3,2.3,56,0.00,CLR,,0.00,WeatherDisplay:10.37,2013-02-05 12:30:00,
2013-02-05 05:35:00,34.9,20.8,29.71,NNW,338,1.4,1.4,56,0.00,CLR,,0.00,WeatherDisplay:10.37,2013-02-05 12:35:00,
2013-02-05 05:40:00,34.7,20.6,29.71,NNW,338,3.5,3.5,56,0.00,CLR,,0.00,WeatherDisplay:10.37,2013-02-05 12:40:00,
2013-02-05 05:45:00,34.7,20.6,29.71,North,0,1.2,1.2,56,0.00,CLR,,0.00,WeatherDisplay:10.37,2013-02-05 12:45:00,
2013-02-05 05:50:00,34.7,20.2,29.71,NW,315,1.2,1.2,55,0.00,CLR,,0.00,WeatherDisplay:10.37,2013-02-05 12:50:00,
2013-02-05 05:55:00,34.7,20.2,29.71,West,270,1.2,1.2,55,0.00,CLR,,0.00,WeatherDisplay:10.37,2013-02-05 12:55:00,
2013-02-05 06:00:00,34.9,20.3,29.71,North,0,2.3,2.3,55,0.00,CLR,,0.00,WeatherDisplay:10.37,2013-02-05 13:00:00,
2013-02-05 06:05:00,35.1,20.5,29.71,NNW,338,2.9,2.9,55,0.00,CLR,,0.00,WeatherDisplay:10.37,2013-02-05 13:05:00,
2013-02-05 06:10:00,35.1,20.1,29.71,NW,315,1.2,1.2,54,0.00,CLR,,0.00,WeatherDisplay:10.37,2013-02-05 13:10:00,
2013-02-05 06:15:00,34.9,19.9,29.71,North,0,2.3,2.3,54,0.00,CLR,,0.00,WeatherDisplay:10.37,2013-02-05 13:15:00,
2013-02-05 06:20:00,34.7,19.7,29.71,North,0,2.3,2.3,54,0.00,CLR,,0.00,WeatherDisplay:10.37,2013-02-05 13:20:00,
2013-02-05 06:25:00,34.3,19.4,29.71,NNW,338,1.2,1.2,54,0.00,CLR,,0.00,WeatherDisplay:10.37,2013-02-05 13:25:00,
2013-02-05 06:30:00,34.2,19.2,29.72,NNW,338,1.2,1.2,54,0.00,CLR,,0.00,WeatherDisplay:10.37,2013-02-05 13:30:00,
2013-02-05 06:35:00,33.8,18.9,29.71,NNW,338,1.2,1.2,54,0.00,CLR,,0.00,WeatherDisplay:10.37,2013-02-05 13:35:00,
2013-02-05 06:40:00,33.4,19.0,29.71,North,0,0.2,0.2,55,0.00,CLR,,0.00,WeatherDisplay:10.37,2013-02-05 13:40:00,
2013-02-05 06:45:00,33.1,18.7,29.71,NW,315,1.2,1.2,55,0.00,CLR,,0.00,WeatherDisplay:10.37,2013-02-05 13:45:00,
2013-02-05 06:50:00,32.7,18.3,29.71,NW,315,0.5,0.5,55,0.00,CLR,,0.00,WeatherDisplay:10.37,2013-02-05 13:50:00,
2013-02-05 06:55:00,32.4,18.4,29.71,NNW,338,1.2,1.2,56,0.00,CLR,,0.00,WeatherDisplay:10.37,2013-02-05 13:55:00,
2013-02-05 07:00:00,32.2,18.2,29.71,WNW,292,1.2,1.2,56,0.00,CLR,,0.00,WeatherDisplay:10.37,2013-02-05 14:00:00,
2013-02-05 07:05:00,32.4,18.8,29.72,NNW,338,1.2,0.0,57,0.00,CLR,,0.00,WeatherDisplay:10.37,2013-02-05 14:05:00,
2013-02-05 07:10:00,32.4,18.8,29.72,NNW,338,1.2,1.2,57,0.00,CLR,,0.00,WeatherDisplay:10.37,2013-02-05 14:10:00,
2013-02-05 07:15:00,32.4,18.8,29.72,NNW,338,1.2,1.2,57,0.00,CLR,,0.00,WeatherDisplay:10.37,2013-02-05 14:15:00,
2013-02-05 07:20:00,32.4,19.2,29.72,NNE,22,0.0,0.0,58,0.00,CLR,,0.00,WeatherDisplay:10.37,2013-02-05 14:20:00,
2013-02-05 07:25:00,32.4,18.8,29.72,North,0,0.2,0.2,57,0.00,CLR,,0.00,WeatherDisplay:10.37,2013-02-05 14:25:00,
2013-02-05 07:30:00,32.4,18.8,29.73,NNE,22,0.0,0.0,57,0.00,CLR,,0.00,WeatherDisplay:10.37,2013-02-05 14:30:00,
2013-02-05 07:35:00,32.2,18.6,29.73,ENE,68,0.0,0.0,57,0.00,CLR,,0.00,WeatherDisplay:10.37,2013-02-05 14:35:00,
2013-02-05 07:40:00,32.0,18.5,29.73,East,90,0.0,0.0,57,0.00,CLR,,0.00,WeatherDisplay:10.37,2013-02-05 14:40:00,
2013-02-05 07:45:00,32.0,18.5,29.73,NNE,22,0.2,0.2,57,0.00,CLR,,0.00,WeatherDisplay:10.37,2013-02-05 14:45:00,
2013-02-05 07:50:00,32.2,19.0,29.73,NE,45,0.7,0.7,58,0.00,CLR,,0.00,WeatherDisplay:10.37,2013-02-05 14:50:00,
2013-02-05 07:55:00,32.5,19.8,29.73,North,0,1.2,1.2,59,0.00,CLR,,0.00,WeatherDisplay:10.37,2013-02-05 14:55:00,
2013-02-05 08:00:00,33.1,20.3,29.74,NNE,22,2.3,2.3,59,0.00,CLR,,0.00,WeatherDisplay:10.37,2013-02-05 15:00:00,
2013-02-05 08:05:00,33.8,21.4,29.73,NNE,22,2.3,2.3,60,0.00,CLR,,0.00,WeatherDisplay:10.37,2013-02-05 15:05:00,
2013-02-05 08:10:00,34.7,22.2,29.73,NNW,338,2.3,2.3,60,0.00,CLR,,0.00,WeatherDisplay:10.37,2013-02-05 15:10:00,
2013-02-05 08:15:00,35.6,22.7,29.73,NNW,338,2.3,2.3,59,0.00,CLR,,0.00,WeatherDisplay:10.37,2013-02-05 15:15:00,
2013-02-05 08:20:00,36.1,22.8,29.74,NNW,338,1.2,1.2,58,0.00,CLR,,0.00,WeatherDisplay:10.37,2013-02-05 15:20:00,
2013-02-05 08:25:00,36.5,23.1,29.73,NNW,338,1.2,1.4,58,0.00,CLR,,0.00,WeatherDisplay:10.37,2013-02-05 15:25:00,
2013-02-05 08:30:00,36.9,23.0,29.74,NW,315,2.3,2.3,57,0.00,CLR,,0.00,WeatherDisplay:10.37,2013-02-05 15:30:00,
2013-02-05 08:35:00,37.0,23.2,29.74,NW,315,2.3,2.3,57,0.00,CLR,,0.00,WeatherDisplay:10.37,2013-02-05 15:35:00,
2013-02-05 08:40:00,37.4,23.1,29.74,NNW,338,1.6,1.6,56,0.00,CLR,,0.00,WeatherDisplay:10.37,2013-02-05 15:40:00,
2013-02-05 08:45:00,37.6,23.3,29.74,North,0,3.5,3.5,56,0.00,CLR,,0.00,WeatherDisplay:10.37,2013-02-05 15:45:00,
2013-02-05 08:50:00,37.8,23.0,29.74,NW,315,2.3,2.3,55,0.00,CLR,,0.00,WeatherDisplay:10.37,2013-02-05 15:50:00,
2013-02-05 08:55:00,38.3,23.1,29.74,North,0,3.6,3.6,54,0.00,CLR,,0.00,WeatherDisplay:10.37,2013-02-05 15:55:00,
2013-02-05 09:00:00,38.5,23.3,29.74,North,0,1.8,1.8,54,0.00,CLR,,0.00,WeatherDisplay:10.37,2013-02-05 16:00:00,
2013-02-05 09:05:00,38.7,23.4,29.73,NNW,338,1.2,1.2,54,0.00,CLR,,0.00,WeatherDisplay:10.37,2013-02-05 16:05:00,
2013-02-05 09:10:00,39.2,23.5,29.73,North,0,2.3,2.3,53,0.00,CLR,,0.00,WeatherDisplay:10.37,2013-02-05 16:10:00,
2013-02-05 09:15:00,39.7,23.5,29.74,NNW,338,2.3,2.3,52,0.00,CLR,,0.00,WeatherDisplay:10.37,2013-02-05 16:15:00,
2013-02-05 09:20:00,40.1,23.4,29.74,NNW,338,3.6,3.6,51,0.00,CLR,,0.00,WeatherDisplay:10.37,2013-02-05 16:20:00,
2013-02-05 09:25:00,40.5,23.3,29.74,NNW,338,2.3,2.3,50,0.00,CLR,,0.00,WeatherDisplay:10.37,2013-02-05 16:25:00,
2013-02-05 09:30:00,40.8,23.1,29.74,West,270,1.4,1.4,49,0.00,CLR,,0.00,WeatherDisplay:10.37,2013-02-05 16:30:00,
2013-02-05 09:35:00,41.4,23.1,29.74,NNW,338,2.3,2.3,48,0.00,CLR,,0.00,WeatherDisplay:10.37,2013-02-05 16:35:00,
2013-02-05 09:40:00,41.4,23.1,29.74,NNW,338,2.4,2.4,48,0.00,CLR,,0.00,WeatherDisplay:10.37,2013-02-05 16:40:00,
2013-02-05 09:45:00,41.7,22.9,29.74,West,270,1.2,1.2,47,0.00,CLR,,0.00,WeatherDisplay:10.37,2013-02-05 16:45:00,
2013-02-05 09:50:00,41.9,23.1,29.74,NW,315,1.8,1.8,47,0.00,CLR,,0.00,WeatherDisplay:10.37,2013-02-05 16:50:00,
2013-02-05 09:55:00,42.4,22.0,29.74,NW,315,2.3,2.3,44,0.00,CLR,,0.00,WeatherDisplay:10.37,2013-02-05 16:55:00,
2013-02-05 10:00:00,42.4,22.6,29.74,NW,315,1.2,1.2,45,0.00,CLR,,0.00,WeatherDisplay:10.37,2013-02-05 17:00:00,
2013-02-05 10:05:00,42.8,22.4,29.74,WNW,292,3.1,3.1,44,0.00,CLR,,0.00,WeatherDisplay:10.37,2013-02-05 17:05:00,
2013-02-05 10:10:00,43.5,21.9,29.74,NW,315,3.3,3.3,42,0.00,CLR,,0.00,WeatherDisplay:10.37,2013-02-05 17:10:00,
2013-02-05 10:15:00,44.2,22.0,29.74,NNW,338,4.6,4.6,41,0.00,CLR,,0.00,WeatherDisplay:10.37,2013-02-05 17:15:00,
2013-02-05 10:21:00,44.4,21.6,29.74,West,270,2.3,2.3,40,0.00,CLR,,0.00,WeatherDisplay:10.37,2013-02-05 17:21:00,
2013-02-05 10:26:00,45.0,22.1,29.74,NW,315,3.5,3.5,40,0.00,CLR,,0.00,WeatherDisplay:10.37,2013-02-05 17:26:00,
2013-02-05 10:31:00,45.5,21.9,29.74,NNW,338,1.8,1.8,39,0.00,CLR,,0.00,WeatherDisplay:10.37,2013-02-05 17:31:00,
2013-02-05 10:36:00,45.7,21.5,29.74,NW,315,2.3,2.3,38,0.00,CLR,,0.00,WeatherDisplay:10.37,2013-02-05 17:36:00,
2013-02-05 10:41:00,46.0,21.8,29.74,NNW,338,4.6,4.6,38,0.00,CLR,,0.00,WeatherDisplay:10.37,2013-02-05 17:41:00,
2013-02-05 10:46:00,46.2,22.0,29.74,North,0,3.5,3.5,38,0.00,CLR,,0.00,WeatherDisplay:10.37,2013-02-05 17:46:00,
2013-02-05 10:51:00,46.4,21.5,29.74,NNW,338,3.6,3.6,37,0.00,CLR,,0.00,WeatherDisplay:10.37,2013-02-05 17:51:00,
2013-02-05 10:56:00,46.8,21.8,29.74,NNW,338,3.3,3.3,37,0.00,CLR,,0.00,WeatherDisplay:10.37,2013-02-05 17:56:00,
2013-02-05 11:01:00,47.3,22.9,29.74,NW,315,4.6,4.6,38,0.00,CLR,,0.00,WeatherDisplay:10.37,2013-02-05 18:01:00,
2013-02-05 11:06:00,47.5,23.1,29.74,ENE,68,2.3,2.3,38,0.00,CLR,,0.00,WeatherDisplay:10.37,2013-02-05 18:06:00,
2013-02-05 11:11:00,48.0,23.0,29.73,West,270,2.3,2.3,37,0.00,CLR,,0.00,WeatherDisplay:10.37,2013-02-05 18:11:00,
2013-02-05 11:16:00,48.6,23.4,29.73,NNW,338,2.3,4.0,37,0.00,CLR,,0.00,WeatherDisplay:10.37,2013-02-05 18:16:00,
2013-02-05 11:21:00,48.7,22.9,29.73,NNW,338,4.6,4.6,36,0.00,CLR,,0.00,WeatherDisplay:10.37,2013-02-05 18:21:00,
2013-02-05 11:26:00,49.1,23.3,29.73,WNW,292,2.3,2.3,36,0.00,CLR,,0.00,WeatherDisplay:10.37,2013-02-05 18:26:00,
2013-02-05 11:31:00,49.3,23.4,29.73,NW,315,4.6,4.6,36,0.00,CLR,,0.00,WeatherDisplay:10.37,2013-02-05 18:31:00,
2013-02-05 11:36:00,49.5,23.6,29.72,North,0,2.3,2.3,36,0.00,CLR,,0.00,WeatherDisplay:10.37,2013-02-05 18:36:00,
2013-02-05 11:41:00,49.6,23.1,29.72,NW,315,2.3,2.3,35,0.00,CLR,,0.00,WeatherDisplay:10.37,2013-02-05 18:41:00,
2013-02-05 11:46:00,50.0,22.7,29.72,NNW,338,3.8,3.8,34,0.00,CLR,,0.00,WeatherDisplay:10.37,2013-02-05 18:46:00,
2013-02-05 11:51:00,50.5,23.2,29.71,ENE,68,3.8,3.8,34,0.00,CLR,,0.00,WeatherDisplay:10.37,2013-02-05 18:51:00,
2013-02-05 11:56:00,50.9,22.8,29.71,NW,315,2.3,2.3,33,0.00,CLR,,0.00,WeatherDisplay:10.37,2013-02-05 18:56:00,
2013-02-05 12:01:00,51.1,22.2,29.71,NW,315,3.5,3.5,32,0.00,CLR,,0.00,WeatherDisplay:10.37,2013-02-05 19:01:00,
2013-02-05 12:06:00,51.1,22.2,29.71,West,270,3.5,3.5,32,0.00,CLR,,0.00,WeatherDisplay:10.37,2013-02-05 19:06:00,
2013-02-05 12:11:00,51.3,22.4,29.70,NW,315,4.6,4.6,32,0.00,CLR,,0.00,WeatherDisplay:10.37,2013-02-05 19:11:00,
2013-02-05 12:16:00,51.8,22.8,29.70,NNW,338,3.5,3.5,32,0.00,CLR,,0.00,WeatherDisplay:10.37,2013-02-05 19:16:00,
2013-02-05 12:21:00,52.2,23.2,29.70,North,0,2.6,2.6,32,0.00,CLR,,0.00,WeatherDisplay:10.37,2013-02-05 19:21:00,
2013-02-05 12:26:00,52.3,23.3,29.70,SSW,202,2.3,2.3,32,0.00,CLR,,0.00,WeatherDisplay:10.37,2013-02-05 19:26:00,
2013-02-05 12:31:00,52.7,22.9,29.70,NW,315,3.8,3.8,31,0.00,CLR,,0.00,WeatherDisplay:10.37,2013-02-05 19:31:00,
2013-02-05 12:36:00,52.9,23.0,29.69,NE,45,3.5,3.5,31,0.00,CLR,,0.00,WeatherDisplay:10.37,2013-02-05 19:36:00,
2013-02-05 12:41:00,53.2,23.3,29.69,NNW,338,1.6,1.6,31,0.00,CLR,,0.00,WeatherDisplay:10.37,2013-02-05 19:41:00,
2013-02-05 12:46:00,53.4,22.7,29.69,WSW,248,2.3,0.0,30,0.00,CLR,,0.00,WeatherDisplay:10.37,2013-02-05 19:46:00,
2013-02-05 12:51:00,53.6,22.1,29.68,WSW,248,3.5,3.5,29,0.00,CLR,,0.00,WeatherDisplay:10.37,2013-02-05 19:51:00,
2013-02-05 12:56:00,54.0,22.4,29.68,North,0,2.3,2.3,29,0.00,CLR,,0.00,WeatherDisplay:10.37,2013-02-05 19:56:00,
2013-02-05 13:01:00,54.1,23.3,29.68,WSW,248,3.5,3.5,30,0.00,CLR,,0.00,WeatherDisplay:10.37,2013-02-05 20:01:00,
2013-02-05 13:06:00,54.3,22.7,29.68,South,180,2.3,2.3,29,0.00,CLR,,0.00,WeatherDisplay:10.37,2013-02-05 20:06:00,
2013-02-05 13:11:00,54.5,22.0,29.68,WSW,248,4.0,4.0,28,0.00,CLR,,0.00,WeatherDisplay:10.37,2013-02-05 20:11:00,
2013-02-05 13:16:00,54.5,22.0,29.68,ENE,68,2.3,2.3,28,0.00,CLR,,0.00,WeatherDisplay:10.37,2013-02-05 20:16:00,
2013-02-05 13:21:00,54.3,21.9,29.68,SW,225,2.3,2.3,28,0.00,CLR,,0.00,WeatherDisplay:10.37,2013-02-05 20:21:00,
2013-02-05 13:26:00,54.3,21.0,29.68,West,270,2.3,2.3,27,0.00,CLR,,0.00,WeatherDisplay:10.37,2013-02-05 20:26:00,
2013-02-05 13:31:00,54.5,21.2,29.67,WNW,292,2.3,2.3,27,0.00,CLR,,0.00,WeatherDisplay:10.37,2013-02-05 20:31:00,
2013-02-05 13:36:00,54.7,21.3,29.67,NNE,22,2.3,2.3,27,0.00,CLR,,0.00,WeatherDisplay:10.37,2013-02-05 20:36:00,
2013-02-05 13:41:00,55.0,21.6,29.67,NNE,22,3.1,3.1,27,0.00,CLR,,0.00,WeatherDisplay:10.37,2013-02-05 20:41:00,
2013-02-05 13:46:00,55.0,21.6,29.66,ESE,112,2.3,2.3,27,0.00,CLR,,0.00,WeatherDisplay:10.37,2013-02-05 20:46:00,
2013-02-05 13:51:00,55.2,22.6,29.66,WSW,248,1.6,1.6,28,0.00,CLR,,0.00,WeatherDisplay:10.37,2013-02-05 20:51:00,
2013-02-05 13:56:00,55.8,22.2,29.66,WSW,248,1.2,1.2,27,0.00,CLR,,0.00,WeatherDisplay:10.37,2013-02-05 20:56:00,
2013-02-05 14:01:00,55.8,22.2,29.66,WSW,248,1.2,1.2,27,0.00,CLR,,0.00,WeatherDisplay:10.37,2013-02-05 21:01:00,
2013-02-05 14:06:00,55.8,20.4,29.66,NE,45,2.3,2.3,25,0.00,CLR,,0.00,WeatherDisplay:10.37,2013-02-05 21:06:00,
2013-02-05 14:11:00,55.8,20.4,29.66,NW,315,2.3,2.3,25,0.00,CLR,,0.00,WeatherDisplay:10.37,2013-02-05 21:11:00,
2013-02-05 14:16:00,55.9,21.5,29.66,WSW,248,2.4,2.4,26,0.00,CLR,,0.00,WeatherDisplay:10.37,2013-02-05 21:16:00,
2013-02-05 14:21:00,56.3,20.9,29.66,SSE,158,3.5,3.5,25,0.00,CLR,,0.00,WeatherDisplay:10.37,2013-02-05 21:21:00,
2013-02-05 14:26:00,56.3,22.7,29.65,WSW,248,4.6,4.6,27,0.00,CLR,,0.00,WeatherDisplay:10.37,2013-02-05 21:26:00,
2013-02-05 14:31:00,56.5,21.0,29.65,WNW,292,2.3,2.3,25,0.00,CLR,,0.00,WeatherDisplay:10.37,2013-02-05 21:31:00,
2013-02-05 14:36:00,56.7,22.1,29.65,NNW,338,1.2,1.2,26,0.00,CLR,,0.00,WeatherDisplay:10.37,2013-02-05 21:36:00,
2013-02-05 14:41:00,56.8,20.4,29.65,NNW,338,3.5,3.5,24,0.00,CLR,,0.00,WeatherDisplay:10.37,2013-02-05 21:41:00,
2013-02-05 14:46:00,57.0,21.5,29.65,NNW,338,3.5,3.5,25,0.00,CLR,,0.00,WeatherDisplay:10.37,2013-02-05 21:46:00,
2013-02-05 14:51:00,57.2,20.7,29.65,NNW,338,1.2,1.2,24,0.00,CLR,,0.00,WeatherDisplay:10.37,2013-02-05 21:51:00,
2013-02-05 14:56:00,57.4,20.8,29.65,NW,315,2.3,2.3,24,0.00,CLR,,0.00,WeatherDisplay:10.37,2013-02-05 21:56:00,
2013-02-05 15:01:00,57.6,21.0,29.65,ENE,68,2.9,2.9,24,0.00,CLR,,0.00,WeatherDisplay:10.37,2013-02-05 22:01:00,
2013-02-05 15:06:00,57.9,21.3,29.65,NW,315,1.8,1.8,24,0.00,CLR,,0.00,WeatherDisplay:10.37,2013-02-05 22:06:00,
2013-02-05 15:11:00,58.1,20.4,29.65,WSW,248,3.1,3.1,23,0.00,CLR,,0.00,WeatherDisplay:10.37,2013-02-05 22:11:00,
2013-02-05 15:16:00,58.3,20.6,29.64,WSW,248,4.6,4.6,23,0.00,CLR,,0.00,WeatherDisplay:10.37,2013-02-05 22:16:00,
2013-02-05 15:21:00,58.5,20.7,29.64,ENE,68,2.3,2.3,23,0.00,CLR,,0.00,WeatherDisplay:10.37,2013-02-05 22:21:00,
2013-02-05 15:26:00,58.6,20.9,29.64,SE,135,2.3,2.3,23,0.00,CLR,,0.00,WeatherDisplay:10.37,2013-02-05 22:26:00,
2013-02-05 15:31:00,59.0,20.2,29.65,SW,225,3.6,3.6,22,0.00,CLR,,0.00,WeatherDisplay:10.37,2013-02-05 22:31:00,
2013-02-05 15:36:00,59.2,20.3,29.64,North,0,2.3,2.3,22,0.00,CLR,,0.00,WeatherDisplay:10.37,2013-02-05 22:36:00,
2013-02-05 15:41:00,59.0,20.2,29.64,WSW,248,3.5,3.5,22,0.00,CLR,,0.00,WeatherDisplay:10.37,2013-02-05 22:41:00,
2013-02-05 15:46:00,59.4,21.5,29.64,SE,135,2.3,2.3,23,0.00,CLR,,0.00,WeatherDisplay:10.37,2013-02-05 22:46:00,
2013-02-05 15:51:00,59.5,21.7,29.64,SW,225,2.4,2.4,23,0.00,CLR,,0.00,WeatherDisplay:10.37,2013-02-05 22:51:00,
2013-02-05 15:56:00,59.7,21.8,29.64,NW,315,2.0,2.0,23,0.00,CLR,,0.00,WeatherDisplay:10.37,2013-02-05 22:56:00,
2013-02-05 16:00:00,59.2,20.3,29.64,NW,315,1.2,1.2,22,0.00,CLR,,0.00,WeatherDisplay:10.37,2013-02-05 23:00:00,
2013-02-05 16:05:00,59.2,20.3,29.64,SW,225,1.2,1.2,22,0.00,CLR,,0.00,WeatherDisplay:10.37,2013-02-05 23:05:00,
2013-02-05 16:11:00,59.4,21.5,29.64,SSW,202,2.3,2.3,23,0.00,CLR,,0.00,WeatherDisplay:10.37,2013-02-05 23:11:00,
2013-02-05 16:16:00,59.4,21.5,29.64,SW,225,2.3,2.3,23,0.00,CLR,,0.00,WeatherDisplay:10.37,2013-02-05 23:16:00,
2013-02-05 16:21:00,59.7,21.8,29.64,SW,225,2.2,2.2,23,0.00,CLR,,0.00,WeatherDisplay:10.37,2013-02-05 23:21:00,
2013-02-05 16:26:00,59.5,20.6,29.64,SW,225,3.5,3.5,22,0.00,CLR,,0.00,WeatherDisplay:10.37,2013-02-05 23:26:00,
2013-02-05 16:31:00,59.4,20.5,29.64,SW,225,2.3,2.3,22,0.00,CLR,,0.00,WeatherDisplay:10.37,2013-02-05 23:31:00,
2013-02-05 16:36:00,59.4,20.5,29.64,SSW,202,2.3,2.3,22,0.00,CLR,,0.00,WeatherDisplay:10.37,2013-02-05 23:36:00,
2013-02-05 16:41:00,59.0,21.2,29.64,South,180,0.5,0.5,23,0.00,CLR,,0.00,WeatherDisplay:10.37,2013-02-05 23:41:00,
2013-02-05 16:46:00,59.2,21.4,29.64,NNW,338,1.2,1.2,23,0.00,CLR,,0.00,WeatherDisplay:10.37,2013-02-05 23:46:00,
2013-02-05 16:51:00,59.0,21.2,29.64,WSW,248,1.2,1.2,23,0.00,CLR,,0.00,WeatherDisplay:10.37,2013-02-05 23:51:00,
2013-02-05 16:56:00,58.8,20.0,29.64,WSW,248,0.5,0.5,22,0.00,CLR,,0.00,WeatherDisplay:10.37,2013-02-05 23:56:00,
2013-02-05 17:01:00,58.3,19.6,29.64,NW,315,0.5,0.5,22,0.00,CLR,,0.00,WeatherDisplay:10.37,2013-02-06 00:01:00,
2013-02-05 17:06:00,57.9,20.3,29.64,WSW,248,2.3,2.3,23,0.00,CLR,,0.00,WeatherDisplay:10.37,2013-02-06 00:06:00,
2013-02-05 17:11:00,57.6,20.0,29.64,SSE,158,1.2,1.2,23,0.00,CLR,,0.00,WeatherDisplay:10.37,2013-02-06 00:11:00,
2013-02-05 17:16:00,57.4,19.8,29.64,SE,135,1.2,1.2,23,0.00,CLR,,0.00,WeatherDisplay:10.37,2013-02-06 00:16:00,
2013-02-05 17:21:00,56.8,19.4,29.64,SE,135,0.0,0.0,23,0.00,CLR,,0.00,WeatherDisplay:10.37,2013-02-06 00:21:00,
2013-02-05 17:26:00,56.1,19.8,29.64,SE,135,0.0,0.0,24,0.00,CLR,,0.00,WeatherDisplay:10.37,2013-02-06 00:26:00,
2013-02-05 17:31:00,55.6,19.3,29.64,SE,135,0.0,0.0,24,0.00,CLR,,0.00,WeatherDisplay:10.37,2013-02-06 00:31:00,
2013-02-05 17:36:00,55.0,18.9,29.64,ESE,112,0.0,0.0,24,0.00,CLR,,0.00,WeatherDisplay:10.37,2013-02-06 00:36:00,
2013-02-05 17:41:00,54.3,18.2,29.64,ESE,112,0.0,0.0,24,0.00,CLR,,0.00,WeatherDisplay:10.37,2013-02-06 00:41:00,
2013-02-05 17:46:00,54.0,18.9,29.64,ESE,112,0.0,0.0,25,0.00,CLR,,0.00,WeatherDisplay:10.37,2013-02-06 00:46:00,
2013-02-05 17:51:00,53.2,18.3,29.64,ESE,112,0.0,0.0,25,0.00,CLR,,0.00,WeatherDisplay:10.37,2013-02-06 00:51:00,
2013-02-05 17:56:00,52.7,17.8,29.64,ESE,112,0.0,0.0,25,0.00,CLR,,0.00,WeatherDisplay:10.37,2013-02-06 00:56:00,
2013-02-05 18:01:00,52.2,18.3,29.64,ESE,112,0.0,0.0,26,0.00,CLR,,0.00,WeatherDisplay:10.37,2013-02-06 01:01:00,
2013-02-05 18:06:00,51.6,18.7,29.64,ESE,112,0.0,0.0,27,0.00,CLR,,0.00,WeatherDisplay:10.37,2013-02-06 01:06:00,
2013-02-05 18:11:00,51.1,18.2,29.64,ESE,112,0.0,0.0,27,0.00,CLR,,0.00,WeatherDisplay:10.37,2013-02-06 01:11:00,
2013-02-05 18:16:00,50.5,17.7,29.65,ENE,68,0.0,0.0,27,0.00,CLR,,0.00,WeatherDisplay:10.37,2013-02-06 01:16:00,
2013-02-05 18:21:00,50.0,18.1,29.65,NE,45,0.0,0.0,28,0.00,CLR,,0.00,WeatherDisplay:10.37,2013-02-06 01:21:00,
2013-02-05 18:26:00,49.5,18.5,29.65,NE,45,0.0,0.2,29,0.00,CLR,,0.00,WeatherDisplay:10.37,2013-02-06 01:26:00,
2013-02-05 18:31:00,49.1,18.2,29.65,NE,45,0.0,0.0,29,0.00,CLR,,0.00,WeatherDisplay:10.37,2013-02-06 01:31:00,
2013-02-05 18:36:00,48.4,17.5,29.65,ENE,68,0.5,0.5,29,0.00,CLR,,0.00,WeatherDisplay:10.37,2013-02-06 01:36:00,
2013-02-05 18:41:00,47.8,17.1,29.65,East,90,0.5,0.5,29,0.00,CLR,,0.00,WeatherDisplay:10.37,2013-02-06 01:41:00,
2013-02-05 18:46:00,47.5,17.5,29.65,East,90,1.2,1.2,30,0.00,CLR,,0.00,WeatherDisplay:10.37,2013-02-06 01:46:00,
2013-02-05 18:51:00,47.1,17.2,29.65,East,90,1.2,1.2,30,0.00,CLR,,0.00,WeatherDisplay:10.37,2013-02-06 01:51:00,
2013-02-05 18:56:00,46.8,17.7,29.65,East,90,1.2,1.2,31,0.00,CLR,,0.00,WeatherDisplay:10.37,2013-02-06 01:56:00,
2013-02-05 19:01:00,46.2,17.2,29.65,East,90,1.2,1.2,31,0.00,CLR,,0.00,WeatherDisplay:10.37,2013-02-06 02:01:00,
2013-02-05 19:06:00,45.9,16.9,29.65,East,90,1.2,0.0,31,0.00,CLR,,0.00,WeatherDisplay:10.37,2013-02-06 02:06:00,
2013-02-05 19:11:00,45.7,17.5,29.66,East,90,0.0,0.0,32,0.00,CLR,,0.00,WeatherDisplay:10.37,2013-02-06 02:11:00,
2013-02-05 19:16:00,45.3,17.1,29.65,East,90,0.0,0.0,32,0.00,CLR,,0.00,WeatherDisplay:10.37,2013-02-06 02:16:00,
2013-02-05 19:21:00,45.1,17.0,29.65,East,90,0.0,0.0,32,0.00,CLR,,0.00,WeatherDisplay:10.37,2013-02-06 02:21:00,
2013-02-05 19:26:00,44.8,16.7,29.65,East,90,1.2,1.2,32,0.00,CLR,,0.00,WeatherDisplay:10.37,2013-02-06 02:26:00,
2013-02-05 19:31:00,44.4,17.1,29.65,East,90,0.5,0.5,33,0.00,CLR,,0.00,WeatherDisplay:10.37,2013-02-06 02:31:00,
2013-02-05 19:36:00,44.2,16.9,29.65,East,90,0.0,0.0,33,0.00,CLR,,0.00,WeatherDisplay:10.37,2013-02-06 02:36:00,
2013-02-05 19:41:00,44.1,16.8,29.65,East,90,0.0,0.0,33,0.00,CLR,,0.00,WeatherDisplay:10.37,2013-02-06 02:41:00,
2013-02-05 19:46:00,43.9,16.6,29.65,East,90,0.0,0.0,33,0.00,CLR,,0.00,WeatherDisplay:10.37,2013-02-06 02:46:00,
2013-02-05 19:51:00,43.5,16.3,29.65,East,90,0.0,0.0,33,0.00,CLR,,0.00,WeatherDisplay:10.37,2013-02-06 02:51:00,
2013-02-05 19:56:00,43.2,16.0,29.65,NNE,22,0.5,0.5,33,0.00,CLR,,0.00,WeatherDisplay:10.37,2013-02-06 02:56:00,
2013-02-05 20:01:00,43.2,16.0,29.65,NNE,22,0.0,0.0,33,0.00,CLR,,0.00,WeatherDisplay:10.37,2013-02-06 03:01:00,
2013-02-05 20:06:00,43.2,17.3,29.65,NNE,22,0.0,0.0,35,0.00,CLR,,0.00,WeatherDisplay:10.37,2013-02-06 03:06:00,
2013-02-05 20:11:00,43.0,17.2,29.65,NE,45,0.5,0.5,35,0.00,CLR,,0.00,WeatherDisplay:10.37,2013-02-06 03:11:00,
2013-02-05 20:16:00,43.0,17.2,29.65,NE,45,0.0,0.0,35,0.00,CLR,,0.00,WeatherDisplay:10.37,2013-02-06 03:16:00,
2013-02-05 20:21:00,42.8,17.0,29.65,NE,45,0.0,0.0,35,0.00,CLR,,0.00,WeatherDisplay:10.37,2013-02-06 03:21:00,
2013-02-05 20:26:00,42.6,16.8,29.65,NE,45,0.0,0.0,35,0.00,CLR,,0.00,WeatherDisplay:10.37,2013-02-06 03:26:00,
2013-02-05 20:31:00,42.4,17.3,29.65,ENE,68,0.0,0.0,36,0.00,CLR,,0.00,WeatherDisplay:10.37,2013-02-06 03:31:00,
2013-02-05 20:36:00,42.4,17.3,29.64,East,90,0.0,0.0,36,0.00,CLR,,0.00,WeatherDisplay:10.37,2013-02-06 03:36:00,
2013-02-05 20:41:00,42.1,17.0,29.64,ENE,68,0.0,0.0,36,0.00,CLR,,0.00,WeatherDisplay:10.37,2013-02-06 03:41:00,
2013-02-05 20:46:00,41.5,16.5,29.64,East,90,0.0,0.0,36,0.00,CLR,,0.00,WeatherDisplay:10.37,2013-02-06 03:46:00,
2013-02-05 20:51:00,41.4,17.0,29.64,NNE,22,0.0,0.2,37,0.00,CLR,,0.00,WeatherDisplay:10.37,2013-02-06 03:51:00,
2013-02-05 20:56:00,41.0,16.7,29.65,North,0,0.0,0.0,37,0.00,CLR,,0.00,WeatherDisplay:10.37,2013-02-06 03:56:00,
2013-02-05 21:01:00,41.0,16.7,29.65,North,0,0.0,0.0,37,0.00,CLR,,0.00,WeatherDisplay:10.37,2013-02-06 04:01:00,
2013-02-05 21:06:00,40.8,16.5,29.65,NNE,22,0.0,0.0,37,0.00,CLR,,0.00,WeatherDisplay:10.37,2013-02-06 04:06:00,
2013-02-05 21:11:00,40.6,16.4,29.65,NNE,22,0.0,0.0,37,0.00,CLR,,0.00,WeatherDisplay:10.37,2013-02-06 04:11:00,
2013-02-05 21:16:00,40.5,16.2,29.65,NE,45,0.0,0.0,37,0.00,CLR,,0.00,WeatherDisplay:10.37,2013-02-06 04:16:00,
2013-02-05 21:21:00,40.3,16.0,29.65,NE,45,0.0,0.0,37,0.00,CLR,,0.00,WeatherDisplay:10.37,2013-02-06 04:21:00,
2013-02-05 21:26:00,39.9,16.3,29.65,West,270,1.2,1.2,38,0.00,CLR,,0.00,WeatherDisplay:10.37,2013-02-06 04:26:00,
2013-02-05 21:31:00,39.7,16.2,29.65,West,270,0.0,0.0,38,0.00,CLR,,0.00,WeatherDisplay:10.37,2013-02-06 04:31:00,
2013-02-05 21:36:00,39.6,16.0,29.65,ENE,68,0.0,0.0,38,0.00,CLR,,0.00,WeatherDisplay:10.37,2013-02-06 04:36:00,
2013-02-05 21:41:00,39.2,16.3,29.65,ENE,68,0.0,0.0,39,0.00,CLR,,0.00,WeatherDisplay:10.37,2013-02-06 04:41:00,
2013-02-05 21:46:00,39.0,16.1,29.65,ENE,68,0.0,0.0,39,0.00,CLR,,0.00,WeatherDisplay:10.37,2013-02-06 04:46:00,
2013-02-05 21:51:00,38.7,15.8,29.65,ENE,68,0.0,0.0,39,0.00,CLR,,0.00,WeatherDisplay:10.37,2013-02-06 04:51:00,
2013-02-05 21:56:00,38.5,15.6,29.64,ENE,68,0.0,0.0,39,0.00,CLR,,0.00,WeatherDisplay:10.37,2013-02-06 04:56:00,
2013-02-05 22:00:00,38.3,16.1,29.65,ENE,68,0.0,0.0,40,0.00,CLR,,0.00,WeatherDisplay:10.37,2013-02-06 05:00:00,
2013-02-05 22:05:00,37.9,15.7,29.65,ENE,68,0.0,0.0,40,0.00,CLR,,0.00,WeatherDisplay:10.37,2013-02-06 05:05:00,
2013-02-05 22:10:00,37.8,15.6,29.65,ENE,68,0.5,0.5,40,0.00,CLR,,0.00,WeatherDisplay:10.37,2013-02-06 05:10:00,
2013-02-05 22:15:00,37.8,15.6,29.65,ENE,68,0.0,0.2,40,0.00,CLR,,0.00,WeatherDisplay:10.37,2013-02-06 05:15:00,
2013-02-05 22:20:00,37.6,16.0,29.65,ENE,68,0.0,0.0,41,0.00,CLR,,0.00,WeatherDisplay:10.37,2013-02-06 05:20:00,
2013-02-05 22:25:00,37.4,15.8,29.65,ENE,68,0.0,0.0,41,0.00,CLR,,0.00,WeatherDisplay:10.37,2013-02-06 05:25:00,
2013-02-05 22:30:00,37.4,15.8,29.65,ENE,68,1.2,1.2,41,0.00,CLR,,0.00,WeatherDisplay:10.37,2013-02-06 05:30:00,
2013-02-05 22:35:00,37.4,16.4,29.65,ENE,68,0.0,0.0,42,0.00,CLR,,0.00,WeatherDisplay:10.37,2013-02-06 05:35:00,
2013-02-05 22:40:00,37.4,16.4,29.65,NNE,22,0.0,0.0,42,0.00,CLR,,0.00,WeatherDisplay:10.37,2013-02-06 05:40:00,
2013-02-05 22:45:00,37.2,16.2,29.65,ENE,68,0.0,0.0,42,0.00,CLR,,0.00,WeatherDisplay:10.37,2013-02-06 05:45:00,
2013-02-05 22:50:00,37.0,16.0,29.65,ENE,68,0.0,0.0,42,0.00,CLR,,0.00,WeatherDisplay:10.37,2013-02-06 05:50:00,
2013-02-05 22:55:00,37.0,16.0,29.65,ENE,68,1.2,1.2,42,0.00,CLR,,0.00,WeatherDisplay:10.37,2013-02-06 05:55:00,
2013-02-05 23:00:00,36.9,15.9,29.65,NE,45,0.0,0.0,42,0.00,CLR,,0.00,WeatherDisplay:10.37,2013-02-06 06:00:00,
2013-02-05 23:05:00,36.9,16.4,29.65,ENE,68,0.0,0.0,43,0.00,CLR,,0.00,WeatherDisplay:10.37,2013-02-06 06:05:00,
2013-02-05 23:10:00,36.7,16.3,29.65,ENE,68,0.0,0.0,43,0.00,CLR,,0.00,WeatherDisplay:10.37,2013-02-06 06:10:00,
2013-02-05 23:15:00,36.7,16.3,29.65,East,90,1.2,1.2,43,0.00,CLR,,0.00,WeatherDisplay:10.37,2013-02-06 06:15:00,
2013-02-05 23:20:00,36.7,16.3,29.65,NE,45,0.5,0.5,43,0.00,CLR,,0.00,WeatherDisplay:10.37,2013-02-06 06:20:00,
2013-02-05 23:25:00,36.7,16.8,29.65,ENE,68,0.0,0.0,44,0.00,CLR,,0.00,WeatherDisplay:10.37,2013-02-06 06:25:00,
2013-02-05 23:30:00,36.7,16.3,29.65,ENE,68,1.2,0.0,43,0.00,CLR,,0.00,WeatherDisplay:10.37,2013-02-06 06:30:00,
2013-02-05 23:35:00,36.5,16.1,29.65,ENE,68,0.2,0.2,43,0.00,CLR,,0.00,WeatherDisplay:10.37,2013-02-06 06:35:00,
2013-02-05 23:40:00,36.3,15.9,29.65,ENE,68,0.0,0.0,43,0.00,CLR,,0.00,WeatherDisplay:10.37,2013-02-06 06:40:00,
2013-02-05 23:45:00,36.0,15.1,29.66,East,90,0.5,0.5,42,0.00,CLR,,0.00,WeatherDisplay:10.37,2013-02-06 06:45:00,
2013-02-05 23:50:00,35.8,14.9,29.66,ENE,68,0.0,0.2,42,0.00,CLR,,0.00,WeatherDisplay:10.37,2013-02-06 06:50:00,
2013-02-05 23:55:00,35.6,15.3,29.66,ENE,68,0.0,0.0,43,0.00,CLR,,0.00,WeatherDisplay:10.37,2013-02-06 06:55:00,